Time;durP1;ratioP1;P1;durP2;ratioP2;P2;SDS_P1;SDS_P2;PMS_P1;PMS_P2;Temp;Humidity;BMP_temperature;BMP_pressure;BME280_temperature;BME280_humidity;BME280_pressure;Samples;Min_cycle;Max_cycle;Signal;HPM_P1;HPM_P2
2021/06/19 00:02:52;;;;;;;16.48;7.53;;;;;;;;;;6135058;23;20229;-91
2021/06/19 00:05:57;;;;;;;15.48;7.55;;;;;;;;;;6151756;23;20223;-91
2021/06/19 00:09:02;;;;;;;14.05;8.20;;;;;;;;;;6150691;23;20192;-89
2021/06/19 00:12:09;;;;;;;13.75;9.05;;;;;;;;;;6133508;23;20196;-89
2021/06/19 00:15:16;;;;;;;14.00;7.65;;;;;;;;;;6132885;23;20263;-90
2021/06/19 00:18:23;;;;;;;11.57;7.80;;;;;;;;;;6133503;23;20216;-92
2021/06/19 00:21:28;;;;;;;14.18;7.78;;;;;;;;;;6134461;23;20295;-91
2021/06/19 00:24:36;;;;;;;13.13;7.78;;;;;;;;;;6135260;23;20244;-89
2021/06/19 00:27:43;;;;;;;14.27;8.10;;;;;;;;;;6151318;23;20173;-91
2021/06/19 00:30:49;;;;;;;11.07;7.63;;;;;;;;;;6133949;23;20508;-89
2021/06/19 00:33:54;;;;;;;14.52;8.38;;;;;;;;;;6150662;23;20176;-90
2021/06/19 00:36:59;;;;;;;15.70;8.80;;;;;;;;;;6151831;23;20697;-92
2021/06/19 00:40:05;;;;;;;14.15;8.73;;;;;;;;;;6138781;23;20503;-93
2021/06/19 00:43:12;;;;;;;13.65;8.00;;;;;;;;;;6153765;23;20172;-91
2021/06/19 00:46:18;;;;;;;16.42;8.57;;;;;;;;;;6134753;23;20172;-91
2021/06/19 00:49:24;;;;;;;10.90;7.85;;;;;;;;;;6151406;23;20616;-92
2021/06/19 00:52:29;;;;;;;13.50;7.97;;;;;;;;;;6134839;23;20177;-92
2021/06/19 00:59:12;;;;;;;14.15;8.90;;;;;;;;;;6194524;23;20673;-91
2021/06/19 01:02:23;;;;;;;11.48;8.35;;;;;;;;;;6194572;22;20188;-93
2021/06/19 01:05:37;;;;;;;18.20;8.82;;;;;;;;;;6195234;23;20553;-92
2021/06/19 01:13:20;;;;;;;19.10;9.80;;;;;;;;;;6195414;22;20195;-91
2021/06/19 01:16:34;;;;;;;16.02;9.57;;;;;;;;;;6195453;23;20168;-91
2021/06/19 01:19:46;;;;;;;18.67;10.07;;;;;;;;;;6194899;22;20186;-91
2021/06/19 01:22:59;;;;;;;19.40;10.23;;;;;;;;;;6193600;23;20674;-91
2021/06/19 01:26:14;;;;;;;17.17;9.65;;;;;;;;;;6193979;22;20167;-91
2021/06/19 01:29:25;;;;;;;14.07;9.50;;;;;;;;;;6194018;23;20195;-92
2021/06/19 01:32:38;;;;;;;13.98;9.05;;;;;;;;;;6194812;23;20195;-92
2021/06/19 01:35:49;;;;;;;21.15;10.00;;;;;;;;;;6193725;22;20215;-92
2021/06/19 01:39:02;;;;;;;17.63;9.90;;;;;;;;;;6192350;22;20172;-91
2021/06/19 01:42:15;;;;;;;18.20;10.05;;;;;;;;;;6194248;22;20175;-91
2021/06/19 01:45:27;;;;;;;12.55;8.43;;;;;;;;;;6193077;23;20240;-92
2021/06/19 01:48:38;;;;;;;17.67;9.05;;;;;;;;;;6192579;23;20183;-91
2021/06/19 01:51:53;;;;;;;17.27;9.23;;;;;;;;;;6193961;23;20163;-91
2021/06/19 01:55:05;;;;;;;17.48;9.63;;;;;;;;;;6194270;23;20245;-91
2021/06/19 01:58:19;;;;;;;20.73;9.85;;;;;;;;;;6195558;23;20172;-92
2021/06/19 02:01:31;;;;;;;17.13;10.57;;;;;;;;;;6195229;23;20273;-93
2021/06/19 02:04:43;;;;;;;18.50;10.50;;;;;;;;;;6194996;22;20175;-90
2021/06/19 02:07:55;;;;;;;18.73;10.73;;;;;;;;;;6194505;23;20175;-91
2021/06/19 02:11:07;;;;;;;18.60;11.30;;;;;;;;;;6195401;23;20172;-93
2021/06/19 02:14:20;;;;;;;21.58;10.60;;;;;;;;;;6195183;22;20206;-92
2021/06/19 02:17:34;;;;;;;26.52;11.48;;;;;;;;;;6194578;23;20233;-91
2021/06/19 02:20:47;;;;;;;17.55;9.73;;;;;;;;;;6193923;23;20623;-92
2021/06/19 02:23:58;;;;;;;15.45;10.02;;;;;;;;;;6193827;22;20218;-91
2021/06/19 02:27:11;;;;;;;15.52;9.98;;;;;;;;;;6193209;23;20248;-90
2021/06/19 02:30:26;;;;;;;20.55;10.35;;;;;;;;;;6194395;22;20164;-91
2021/06/19 02:33:37;;;;;;;18.65;10.68;;;;;;;;;;6194126;23;20199;-92
2021/06/19 02:36:48;;;;;;;18.52;10.23;;;;;;;;;;6195074;23;20172;-92
2021/06/19 02:39:59;;;;;;;18.92;10.23;;;;;;;;;;6194493;23;20176;-91
2021/06/19 02:43:12;;;;;;;16.38;9.93;;;;;;;;;;6193705;22;20176;-90
2021/06/19 02:46:25;;;;;;;15.15;9.93;;;;;;;;;;6192648;23;20159;-91
2021/06/19 02:49:37;;;;;;;18.40;10.50;;;;;;;;;;6193961;23;20172;-93
2021/06/19 02:52:48;;;;;;;17.10;10.65;;;;;;;;;;6194169;23;20234;-91
2021/06/19 02:56:00;;;;;;;16.08;9.88;;;;;;;;;;6193879;23;20172;-91
2021/06/19 02:59:12;;;;;;;16.58;10.23;;;;;;;;;;6193082;22;20222;-91
2021/06/19 03:02:25;;;;;;;16.63;10.15;;;;;;;;;;6192778;23;20172;-93
2021/06/19 03:05:38;;;;;;;16.50;10.20;;;;;;;;;;6191873;23;20171;-92
2021/06/19 03:08:49;;;;;;;14.38;10.15;;;;;;;;;;6192498;22;20206;-91
2021/06/19 03:12:00;;;;;;;17.13;10.98;;;;;;;;;;6191781;23;20175;-91
2021/06/19 03:15:13;;;;;;;17.65;10.02;;;;;;;;;;6191795;23;20168;-92
2021/06/19 03:18:26;;;;;;;15.98;10.32;;;;;;;;;;6191707;22;20298;-90
2021/06/19 03:21:38;;;;;;;19.20;11.10;;;;;;;;;;6192936;22;20175;-91
2021/06/19 03:24:50;;;;;;;24.13;10.60;;;;;;;;;;6192995;23;20546;-91
2021/06/19 03:28:03;;;;;;;15.90;9.85;;;;;;;;;;6192607;23;20242;-91
2021/06/19 03:31:14;;;;;;;20.52;10.15;;;;;;;;;;6193020;22;20687;-91
2021/06/19 03:34:28;;;;;;;16.45;9.63;;;;;;;;;;6191231;22;20267;-90
2021/06/19 03:37:40;;;;;;;13.35;9.48;;;;;;;;;;6193971;23;20151;-91
2021/06/19 03:40:51;;;;;;;16.13;9.10;;;;;;;;;;6193460;23;20172;-91
2021/06/19 03:44:02;;;;;;;17.92;9.35;;;;;;;;;;6193658;23;20152;-91
2021/06/19 03:47:14;;;;;;;14.68;9.95;;;;;;;;;;6194905;23;20171;-91
2021/06/19 03:50:28;;;;;;;20.38;10.23;;;;;;;;;;6193028;23;20214;-92
2021/06/19 03:53:39;;;;;;;14.35;9.45;;;;;;;;;;6193701;23;20195;-91
2021/06/19 03:56:57;;;;;;;13.98;9.65;;;;;;;;;;6194155;23;20172;-90
2021/06/19 04:00:12;;;;;;;15.50;9.40;;;;;;;;;;6194684;23;20689;-91
2021/06/19 04:03:29;;;;;;;18.20;9.95;;;;;;;;;;6195618;23;20155;-90
2021/06/19 04:06:45;;;;;;;15.52;9.63;;;;;;;;;;6195663;22;20163;-91
2021/06/19 04:09:58;;;;;;;16.98;8.93;;;;;;;;;;6194836;23;20213;-91
2021/06/19 04:13:10;;;;;;;14.57;9.40;;;;;;;;;;6193453;23;20180;-91
2021/06/19 04:16:25;;;;;;;19.30;9.55;;;;;;;;;;6194271;23;20188;-91
2021/06/19 04:19:36;;;;;;;17.45;9.93;;;;;;;;;;6194665;23;20223;-91
2021/06/19 04:22:50;;;;;;;17.73;9.48;;;;;;;;;;6196062;22;20622;-90
2021/06/19 04:26:02;;;;;;;12.25;9.18;;;;;;;;;;6194994;23;20168;-90
2021/06/19 04:29:14;;;;;;;14.93;9.65;;;;;;;;;;6195281;23;20187;-89
2021/06/19 04:32:29;;;;;;;15.85;9.70;;;;;;;;;;6196327;22;20167;-91
2021/06/19 04:35:42;;;;;;;11.77;8.88;;;;;;;;;;6195880;22;20155;-91
2021/06/19 04:38:57;;;;;;;15.63;8.70;;;;;;;;;;6195670;23;20153;-91
2021/06/19 04:42:14;;;;;;;16.70;9.13;;;;;;;;;;6193982;23;20207;-91
2021/06/19 04:45:26;;;;;;;13.68;7.75;;;;;;;;;;6194733;22;20180;-90
2021/06/19 04:48:37;;;;;;;11.82;8.95;;;;;;;;;;6195286;22;20226;-90
2021/06/19 04:51:50;;;;;;;13.60;8.25;;;;;;;;;;6196077;23;20187;-92
2021/06/19 04:55:10;;;;;;;12.50;8.27;;;;;;;;;;6196174;22;20172;-90
2021/06/19 04:58:24;;;;;;;12.68;8.32;;;;;;;;;;6194941;22;20187;-91
2021/06/19 05:01:36;;;;;;;13.13;8.30;;;;;;;;;;6193912;22;20175;-91
2021/06/19 05:04:47;;;;;;;13.90;8.27;;;;;;;;;;6194698;23;20199;-92
2021/06/19 05:08:01;;;;;;;16.85;8.52;;;;;;;;;;6193952;23;20238;-90
2021/06/19 05:11:14;;;;;;;14.63;8.50;;;;;;;;;;6192881;22;20151;-91
2021/06/19 05:14:26;;;;;;;13.18;8.70;;;;;;;;;;6194899;22;20190;-91
2021/06/19 05:17:39;;;;;;;13.90;9.43;;;;;;;;;;6197457;23;20211;-91
2021/06/19 05:20:51;;;;;;;14.57;9.65;;;;;;;;;;6196287;22;20168;-92
2021/06/19 05:24:02;;;;;;;12.80;8.75;;;;;;;;;;6193547;23;20266;-92
2021/06/19 05:27:16;;;;;;;12.40;8.70;;;;;;;;;;6195493;22;20824;-92
2021/06/19 05:30:27;;;;;;;13.02;8.80;;;;;;;;;;6194911;22;20215;-91
2021/06/19 05:33:38;;;;;;;16.67;8.98;;;;;;;;;;6196243;22;20268;-91
2021/06/19 05:36:50;;;;;;;12.05;8.35;;;;;;;;;;6198054;22;20160;-92
2021/06/19 05:40:10;;;;;;;13.50;8.57;;;;;;;;;;6193494;22;20258;-91
2021/06/19 05:43:25;;;;;;;14.32;9.32;;;;;;;;;;6193962;22;20175;-90
2021/06/19 05:46:37;;;;;;;15.05;8.98;;;;;;;;;;6193460;22;20712;-92
2021/06/19 05:49:49;;;;;;;15.50;9.60;;;;;;;;;;6194201;22;20215;-91
2021/06/19 05:53:01;;;;;;;15.43;9.18;;;;;;;;;;6194393;22;20168;-91
2021/06/19 05:56:13;;;;;;;12.27;9.00;;;;;;;;;;6196614;22;20168;-91
2021/06/19 05:59:26;;;;;;;15.02;9.93;;;;;;;;;;6196821;22;20259;-91
2021/06/19 06:02:38;;;;;;;14.57;10.70;;;;;;;;;;6196449;23;20165;-91
2021/06/19 06:05:50;;;;;;;16.20;9.95;;;;;;;;;;6198020;22;20217;-89
2021/06/19 06:09:04;;;;;;;16.00;10.38;;;;;;;;;;6199123;22;20199;-91
2021/06/19 06:12:28;;;;;;;14.00;9.80;;;;;;;;;;6200501;23;20183;-90
2021/06/19 06:15:41;;;;;;;15.55;10.20;;;;;;;;;;6199532;22;20187;-92
2021/06/19 06:18:55;;;;;;;15.73;9.77;;;;;;;;;;6200314;22;20187;-90
2021/06/19 06:22:06;;;;;;;16.10;10.38;;;;;;;;;;6196190;22;20496;-90
2021/06/19 06:25:19;;;;;;;15.25;9.45;;;;;;;;;;6199223;23;20171;-92
2021/06/19 06:28:32;;;;;;;16.98;9.55;;;;;;;;;;6196496;22;20163;-91
2021/06/19 06:31:46;;;;;;;14.65;9.18;;;;;;;;;;6197263;22;20176;-91
2021/06/19 06:35:02;;;;;;;16.90;9.07;;;;;;;;;;6196847;22;20195;-91
2021/06/19 06:38:14;;;;;;;14.57;9.52;;;;;;;;;;6195469;22;20488;-91
2021/06/19 06:41:26;;;;;;;12.82;8.70;;;;;;;;;;6197924;22;20167;-93
2021/06/19 06:44:40;;;;;;;20.85;9.52;;;;;;;;;;6195713;22;20221;-93
2021/06/19 06:47:54;;;;;;;13.52;8.65;;;;;;;;;;6197739;22;20167;-91
2021/06/19 06:51:07;;;;;;;17.15;9.90;;;;;;;;;;6194799;22;20247;-93
2021/06/19 06:54:19;;;;;;;18.67;9.27;;;;;;;;;;6198373;22;20200;-93
2021/06/19 06:57:30;;;;;;;12.85;9.60;;;;;;;;;;6196348;22;20168;-92
2021/06/19 07:00:43;;;;;;;12.82;9.18;;;;;;;;;;6195857;22;20199;-90
2021/06/19 07:03:58;;;;;;;12.63;9.30;;;;;;;;;;6196795;22;20214;-93
2021/06/19 07:07:11;;;;;;;13.15;9.63;;;;;;;;;;6197108;22;20198;-91
2021/06/19 07:10:29;;;;;;;14.05;9.93;;;;;;;;;;6196298;22;20168;-91
2021/06/19 07:13:42;;;;;;;15.00;10.00;;;;;;;;;;6196620;22;20202;-92
2021/06/19 07:16:53;;;;;;;15.07;9.60;;;;;;;;;;6197142;22;20236;-92
2021/06/19 07:20:12;;;;;;;16.35;9.73;;;;;;;;;;6196310;22;20168;-93
2021/06/19 07:23:25;;;;;;;18.55;9.65;;;;;;;;;;6197862;22;20599;-92
2021/06/19 07:26:37;;;;;;;16.48;9.05;;;;;;;;;;6197134;22;20254;-94
2021/06/19 07:29:51;;;;;;;16.02;9.43;;;;;;;;;;6196441;22;20222;-92
2021/06/19 07:33:06;;;;;;;13.70;9.40;;;;;;;;;;6197009;22;20618;-93
2021/06/19 07:39:45;;;;;;;13.40;9.05;;;;;;;;;;6198286;22;20180;-93
2021/06/19 07:42:59;;;;;;;16.02;11.00;;;;;;;;;;6198097;22;20168;-91
2021/06/19 07:46:14;;;;;;;15.63;8.55;;;;;;;;;;6198200;22;20199;-92
2021/06/19 07:49:26;;;;;;;14.57;8.70;;;;;;;;;;6199583;22;20251;-91
2021/06/19 07:56:27;;;;;;;13.45;8.25;;;;;;;;;;6198920;22;20190;-93
2021/06/19 07:59:44;;;;;;;11.73;8.10;;;;;;;;;;6200700;22;20218;-93
2021/06/19 08:02:57;;;;;;;15.20;8.55;;;;;;;;;;6203506;22;20221;-94
2021/06/19 08:06:09;;;;;;;13.15;8.35;;;;;;;;;;6201050;22;20155;-93
2021/06/19 08:09:23;;;;;;;12.90;8.30;;;;;;;;;;6199164;22;20167;-92
2021/06/19 08:12:44;;;;;;;15.77;8.65;;;;;;;;;;6199897;22;20170;-92
2021/06/19 08:15:58;;;;;;;15.70;8.27;;;;;;;;;;6196757;22;20187;-91
2021/06/19 08:19:10;;;;;;;13.73;8.32;;;;;;;;;;6194329;22;20168;-93
2021/06/19 08:22:24;;;;;;;12.70;8.07;;;;;;;;;;6197145;22;20154;-93
2021/06/19 08:25:41;;;;;;;11.13;7.57;;;;;;;;;;6195891;22;20171;-92
2021/06/19 08:28:56;;;;;;;10.93;7.90;;;;;;;;;;6195871;22;20657;-90
2021/06/19 08:32:08;;;;;;;11.95;8.40;;;;;;;;;;6199710;22;20563;-91
2021/06/19 08:35:25;;;;;;;13.70;7.47;;;;;;;;;;6196218;22;20195;-93
2021/06/19 08:38:47;;;;;;;15.45;8.70;;;;;;;;;;6196669;22;20227;-91
2021/06/19 08:41:59;;;;;;;10.43;7.93;;;;;;;;;;6196330;23;20290;-91
2021/06/19 08:45:26;;;;;;;10.90;7.72;;;;;;;;;;6197297;22;20174;-93
2021/06/19 08:48:40;;;;;;;9.13;7.82;;;;;;;;;;6196594;22;20167;-94
2021/06/19 08:51:53;;;;;;;14.48;7.75;;;;;;;;;;6196139;23;20174;-92
2021/06/19 08:55:06;;;;;;;13.30;7.25;;;;;;;;;;6196057;23;20681;-93
2021/06/19 08:58:19;;;;;;;12.05;7.15;;;;;;;;;;6193086;23;20241;-92
2021/06/19 09:01:30;;;;;;;19.25;7.63;;;;;;;;;;6193046;22;20536;-92
2021/06/19 09:04:56;;;;;;;14.63;8.63;;;;;;;;;;6192984;22;20501;-92
2021/06/19 09:08:11;;;;;;;12.20;8.63;;;;;;;;;;6197081;23;20672;-93
2021/06/19 09:11:29;;;;;;;10.80;7.78;;;;;;;;;;6195785;22;20171;-93
2021/06/19 09:14:43;;;;;;;12.70;7.88;;;;;;;;;;6195033;23;20191;-93
2021/06/19 09:18:11;;;;;;;12.05;7.72;;;;;;;;;;6194583;22;20191;-93
2021/06/19 09:21:30;;;;;;;12.60;7.32;;;;;;;;;;6199291;22;20159;-92
2021/06/19 09:24:45;;;;;;;12.43;7.43;;;;;;;;;;6199692;23;20167;-93
2021/06/19 09:27:58;;;;;;;12.65;7.80;;;;;;;;;;6197970;22;20179;-92
2021/06/19 09:31:10;;;;;;;11.75;8.70;;;;;;;;;;6199445;22;20159;-91
2021/06/19 09:37:50;;;;;;;12.48;8.40;;;;;;;;;;6198882;22;20191;-92
2021/06/19 09:41:05;;;;;;;11.10;8.25;;;;;;;;;;6200983;22;20152;-92
2021/06/19 15:09:23;;;;;;;9.75;6.47;;;;;;;;;;6148522;22;20275;-90
2021/06/19 15:12:36;;;;;;;9.38;5.63;;;;;;;;;;6191720;23;20297;-91
2021/06/19 15:15:48;;;;;;;11.98;5.45;;;;;;;;;;6192672;23;20195;-90
2021/06/19 15:19:00;;;;;;;12.20;5.75;;;;;;;;;;6192739;23;20488;-90
2021/06/19 15:22:11;;;;;;;10.85;5.32;;;;;;;;;;6192364;23;20178;-90
2021/06/19 15:25:25;;;;;;;11.88;5.90;;;;;;;;;;6192089;23;20175;-90
2021/06/19 15:28:37;;;;;;;13.63;5.57;;;;;;;;;;6192896;23;20174;-91
2021/06/19 15:31:49;;;;;;;8.57;6.00;;;;;;;;;;6192886;23;20175;-90
2021/06/19 15:35:01;;;;;;;6.70;5.57;;;;;;;;;;6194406;23;20194;-91
2021/06/19 15:38:13;;;;;;;7.65;5.30;;;;;;;;;;6196117;23;20636;-92
2021/06/19 15:41:26;;;;;;;9.18;5.85;;;;;;;;;;6197323;23;20243;-92
2021/06/19 15:44:37;;;;;;;10.52;5.38;;;;;;;;;;6195848;23;20665;-90
2021/06/19 15:47:50;;;;;;;7.43;5.50;;;;;;;;;;6194907;23;20175;-91
2021/06/19 15:51:01;;;;;;;6.97;5.40;;;;;;;;;;6196241;23;20183;-89
2021/06/19 15:54:12;;;;;;;9.30;5.80;;;;;;;;;;6197077;23;20239;-92
2021/06/19 15:57:25;;;;;;;13.50;5.72;;;;;;;;;;6194381;23;20505;-92
2021/06/19 16:00:36;;;;;;;9.43;5.55;;;;;;;;;;6194011;23;20170;-89
2021/06/19 16:03:49;;;;;;;11.93;5.30;;;;;;;;;;6195328;23;20289;-89
2021/06/19 16:07:01;;;;;;;9.68;6.00;;;;;;;;;;6194213;23;20175;-90
2021/06/19 16:10:13;;;;;;;9.68;5.60;;;;;;;;;;6193900;23;20187;-90
2021/06/19 16:13:26;;;;;;;9.05;5.57;;;;;;;;;;6194436;23;20297;-90
2021/06/19 16:16:37;;;;;;;8.82;5.35;;;;;;;;;;6192850;23;20203;-89
2021/06/19 16:19:50;;;;;;;9.48;5.88;;;;;;;;;;6194915;23;20198;-89
2021/06/19 16:23:01;;;;;;;9.52;5.93;;;;;;;;;;6193644;23;20468;-91
2021/06/19 16:26:14;;;;;;;7.03;5.60;;;;;;;;;;6192970;23;20164;-92
2021/06/19 16:29:27;;;;;;;7.82;5.78;;;;;;;;;;6192355;23;20597;-90
2021/06/19 16:32:50;;;;;;;7.05;5.53;;;;;;;;;;6192448;23;20265;-89
2021/06/19 16:36:02;;;;;;;9.20;5.90;;;;;;;;;;6192605;23;20191;-90
2021/06/19 16:39:13;;;;;;;15.80;8.60;;;;;;;;;;6191565;23;20179;-92
2021/06/19 16:42:24;;;;;;;12.57;6.43;;;;;;;;;;6195227;23;20182;-91
2021/06/19 16:45:38;;;;;;;10.20;6.22;;;;;;;;;;6192553;23;20217;-91
2021/06/19 16:48:50;;;;;;;8.70;6.40;;;;;;;;;;6192914;23;20491;-92
2021/06/19 16:52:02;;;;;;;15.00;8.32;;;;;;;;;;6191648;23;20176;-91
2021/06/19 16:55:15;;;;;;;72.38;39.60;;;;;;;;;;6196064;23;20250;-92
2021/06/19 16:58:26;;;;;;;12.00;7.40;;;;;;;;;;6191852;23;20176;-92
2021/06/19 17:01:39;;;;;;;9.88;7.00;;;;;;;;;;6193143;23;20249;-90
2021/06/19 17:04:56;;;;;;;13.57;6.25;;;;;;;;;;6191849;23;20175;-92
2021/06/19 17:08:08;;;;;;;10.02;7.05;;;;;;;;;;6191883;23;20168;-92
2021/06/19 17:11:19;;;;;;;22.13;15.68;;;;;;;;;;6192906;23;20248;-93
2021/06/19 17:14:31;;;;;;;11.10;7.60;;;;;;;;;;6192822;23;20168;-91
2021/06/19 17:17:44;;;;;;;15.70;8.65;;;;;;;;;;6192008;23;20184;-92
2021/06/19 17:20:56;;;;;;;12.00;7.63;;;;;;;;;;6193172;23;20168;-93
2021/06/19 17:24:08;;;;;;;17.52;9.77;;;;;;;;;;6193143;23;20164;-93
2021/06/19 17:27:20;;;;;;;8.32;5.65;;;;;;;;;;6192460;23;20184;-92
2021/06/19 17:30:31;;;;;;;10.05;6.10;;;;;;;;;;6193597;23;20167;-91
2021/06/19 17:33:45;;;;;;;10.40;6.40;;;;;;;;;;6192529;23;20169;-91
2021/06/19 17:36:57;;;;;;;10.82;6.75;;;;;;;;;;6192951;23;20207;-91
2021/06/19 17:40:09;;;;;;;12.45;6.70;;;;;;;;;;6192704;23;20172;-91
2021/06/19 17:43:20;;;;;;;13.30;6.45;;;;;;;;;;6191650;23;20604;-91
2021/06/19 17:46:32;;;;;;;9.20;6.50;;;;;;;;;;6192457;23;20176;-91
2021/06/19 17:49:45;;;;;;;13.75;7.22;;;;;;;;;;6191679;23;20176;-93
2021/06/19 17:53:03;;;;;;;9.80;6.85;;;;;;;;;;6192509;23;20172;-92
2021/06/19 17:56:15;;;;;;;10.65;7.10;;;;;;;;;;6194102;23;20268;-92
2021/06/19 17:59:28;;;;;;;11.23;6.97;;;;;;;;;;6194296;23;20168;-90
2021/06/19 18:02:41;;;;;;;11.43;7.97;;;;;;;;;;6193412;23;20561;-91
2021/06/19 18:05:54;;;;;;;20.45;14.68;;;;;;;;;;6194796;23;20172;-92
2021/06/19 18:09:06;;;;;;;13.40;8.25;;;;;;;;;;6192739;23;20196;-90
2021/06/19 18:12:18;;;;;;;12.70;6.97;;;;;;;;;;6192425;23;20172;-91
2021/06/19 18:15:29;;;;;;;11.80;7.70;;;;;;;;;;6193698;23;20195;-92
2021/06/19 18:18:42;;;;;;;14.13;7.85;;;;;;;;;;6194085;23;20167;-90
2021/06/19 18:21:55;;;;;;;13.98;7.90;;;;;;;;;;6195659;23;20207;-92
2021/06/19 18:25:07;;;;;;;12.95;7.88;;;;;;;;;;6192817;23;20168;-91
2021/06/19 18:28:19;;;;;;;15.95;8.68;;;;;;;;;;6192315;23;20175;-91
2021/06/19 18:31:31;;;;;;;13.00;7.80;;;;;;;;;;6193253;23;20249;-92
2021/06/19 18:34:44;;;;;;;18.52;8.57;;;;;;;;;;6192535;23;20152;-92
2021/06/19 18:37:57;;;;;;;10.45;8.07;;;;;;;;;;6191973;23;20172;-92
2021/06/19 18:41:08;;;;;;;12.32;8.40;;;;;;;;;;6192244;23;20214;-93
2021/06/19 18:44:20;;;;;;;12.98;8.20;;;;;;;;;;6192378;23;20168;-91
2021/06/19 18:47:32;;;;;;;15.80;8.02;;;;;;;;;;6192682;23;20167;-93
2021/06/19 18:50:45;;;;;;;12.85;8.70;;;;;;;;;;6192030;23;20164;-90
2021/06/19 18:53:58;;;;;;;17.00;8.18;;;;;;;;;;6191527;22;20615;-90
2021/06/19 18:57:10;;;;;;;12.13;8.05;;;;;;;;;;6190701;23;20273;-90
2021/06/19 19:00:24;;;;;;;10.63;8.50;;;;;;;;;;6191395;23;20172;-90
2021/06/19 19:03:36;;;;;;;15.65;8.90;;;;;;;;;;6194391;23;20171;-90
2021/06/19 19:06:51;;;;;;;10.30;7.88;;;;;;;;;;6193707;23;20238;-91
2021/06/19 19:10:06;;;;;;;12.82;8.35;;;;;;;;;;6194527;23;20195;-90
2021/06/19 19:13:18;;;;;;;13.82;8.70;;;;;;;;;;6193960;23;20164;-90
2021/06/19 19:16:30;;;;;;;13.20;9.25;;;;;;;;;;6195084;23;20227;-93
2021/06/19 19:19:42;;;;;;;16.40;9.73;;;;;;;;;;6194997;23;20167;-90
2021/06/19 19:22:54;;;;;;;15.98;9.85;;;;;;;;;;6195986;23;20176;-90
2021/06/19 19:26:09;;;;;;;16.08;10.15;;;;;;;;;;6194893;23;20232;-91
2021/06/19 19:29:20;;;;;;;16.20;9.50;;;;;;;;;;6195690;23;20152;-91
2021/06/19 19:32:32;;;;;;;14.63;9.38;;;;;;;;;;6194556;23;20184;-91
2021/06/19 19:35:45;;;;;;;11.82;8.57;;;;;;;;;;6193668;23;20195;-93
2021/06/19 19:38:57;;;;;;;13.13;9.25;;;;;;;;;;6193835;23;20168;-92
2021/06/19 19:42:11;;;;;;;13.73;9.52;;;;;;;;;;6194966;23;20191;-92
2021/06/19 19:45:23;;;;;;;15.38;10.10;;;;;;;;;;6194868;23;20239;-92
2021/06/19 19:48:36;;;;;;;16.02;9.13;;;;;;;;;;6194734;23;20199;-92
2021/06/19 19:51:48;;;;;;;16.13;9.90;;;;;;;;;;6195552;23;20152;-92
2021/06/19 19:55:01;;;;;;;16.67;9.95;;;;;;;;;;6194169;23;20602;-92
2021/06/19 19:58:14;;;;;;;12.95;9.77;;;;;;;;;;6195357;23;20152;-92
2021/06/19 20:01:26;;;;;;;16.33;10.65;;;;;;;;;;6196238;23;20156;-92
2021/06/19 20:04:38;;;;;;;14.57;10.82;;;;;;;;;;6195441;23;20232;-91
2021/06/19 22:02:44;;;;;;;15.85;10.07;;;;;;;;;;6224889;22;368013;-90
2021/06/19 22:05:50;;;;;;;16.02;10.85;;;;;;;;;;6245545;22;20167;-90
2021/06/19 22:08:56;;;;;;;20.25;10.82;;;;;;;;;;6247172;23;20222;-91
2021/06/19 22:12:01;;;;;;;19.08;12.20;;;;;;;;;;6246146;23;20218;-90
2021/06/19 22:15:07;;;;;;;16.17;11.80;;;;;;;;;;6245865;22;20166;-90
2021/06/19 22:18:14;;;;;;;16.25;11.90;;;;;;;;;;6245704;22;20265;-92
2021/06/19 22:21:19;;;;;;;21.73;11.80;;;;;;;;;;6246688;23;20158;-90
2021/06/19 22:24:24;;;;;;;16.80;11.90;;;;;;;;;;6247574;22;20534;-89
2021/06/19 22:27:29;;;;;;;16.98;11.43;;;;;;;;;;6246791;22;20209;-90
2021/06/19 22:30:36;;;;;;;15.00;10.90;;;;;;;;;;6244755;22;20198;-90
2021/06/19 22:33:42;;;;;;;12.95;10.55;;;;;;;;;;6244573;22;20162;-90
2021/06/19 22:36:47;;;;;;;15.13;11.25;;;;;;;;;;6245900;22;20491;-92
2021/06/19 22:39:53;;;;;;;16.75;10.93;;;;;;;;;;6244706;23;20664;-90
2021/06/19 22:42:58;;;;;;;13.07;9.82;;;;;;;;;;6245310;22;20150;-90
2021/06/19 22:46:04;;;;;;;14.82;10.13;;;;;;;;;;6244259;22;20213;-93
2021/06/19 22:49:10;;;;;;;17.40;11.07;;;;;;;;;;6244543;22;20181;-92
2021/06/19 22:52:15;;;;;;;19.08;11.75;;;;;;;;;;6245840;22;20171;-90
2021/06/19 22:55:21;;;;;;;16.23;11.73;;;;;;;;;;6243789;23;20163;-91
2021/06/19 22:58:27;;;;;;;16.77;11.57;;;;;;;;;;6244485;22;20154;-92
2021/06/19 23:01:32;;;;;;;14.35;11.18;;;;;;;;;;6245172;22;20201;-92
2021/06/19 23:04:39;;;;;;;19.38;10.63;;;;;;;;;;6244361;23;20245;-90
2021/06/19 23:07:44;;;;;;;14.00;10.38;;;;;;;;;;6244220;22;20291;-91
2021/06/19 23:10:50;;;;;;;16.83;10.77;;;;;;;;;;6244122;22;20558;-92
2021/06/19 23:13:56;;;;;;;18.77;11.38;;;;;;;;;;6243866;22;20174;-92
2021/06/19 23:17:01;;;;;;;17.58;12.13;;;;;;;;;;6244829;22;20194;-92
2021/06/19 23:20:10;;;;;;;19.52;11.45;;;;;;;;;;6244231;22;20609;-92
2021/06/19 23:23:15;;;;;;;19.23;11.77;;;;;;;;;;6243934;22;20182;-90
2021/06/19 23:26:20;;;;;;;18.08;11.48;;;;;;;;;;6243235;22;20166;-92
2021/06/19 23:29:25;;;;;;;13.05;10.43;;;;;;;;;;6243255;23;20190;-91
2021/06/19 23:32:32;;;;;;;15.98;10.98;;;;;;;;;;6243189;22;20166;-90
2021/06/19 23:35:39;;;;;;;14.88;10.95;;;;;;;;;;6241653;22;20166;-91
2021/06/19 23:38:44;;;;;;;16.95;10.82;;;;;;;;;;6244143;22;20147;-91
2021/06/19 23:41:50;;;;;;;16.77;10.77;;;;;;;;;;6241982;22;20174;-89
2021/06/19 23:44:55;;;;;;;16.15;11.23;;;;;;;;;;6243239;23;20162;-89
2021/06/19 23:48:01;;;;;;;17.95;11.32;;;;;;;;;;6242243;23;20218;-90
2021/06/19 23:51:07;;;;;;;16.77;11.18;;;;;;;;;;6242172;23;20695;-93
2021/06/19 23:54:13;;;;;;;17.83;11.55;;;;;;;;;;6242589;22;20219;-92
2021/06/19 23:57:18;;;;;;;17.58;11.63;;;;;;;;;;6242592;22;20161;-91
